Time;durP1;ratioP1;P1;durP2;ratioP2;P2;SDS_P1;SDS_P2;PMS_P1;PMS_P2;Temp;Humidity;BMP_temperature;BMP_pressure;BME280_temperature;BME280_humidity;BME280_pressure;Samples;Min_cycle;Max_cycle;Signal;HPM_P1;HPM_P2
2022/05/06 00:00:28;;;;;;;5.40;4.20;;;;;;;20.96;58.82;101304.38;4996969;28;20038;-72
2022/05/06 00:02:55;;;;;;;5.45;3.90;;;;;;;20.95;58.83;101294.63;4996865;28;20058;-72
2022/05/06 00:05:23;;;;;;;6.93;4.38;;;;;;;20.95;58.74;101291.91;4996894;28;20069;-72
2022/05/06 00:07:50;;;;;;;7.75;4.78;;;;;;;20.94;58.70;101293.75;4996708;28;20528;-72
2022/05/06 00:10:17;;;;;;;5.03;4.50;;;;;;;20.95;58.53;101290.06;4997112;28;20058;-72
2022/05/06 00:12:45;;;;;;;5.68;4.88;;;;;;;20.94;58.53;101288.38;4996861;28;20504;-72
2022/05/06 00:15:12;;;;;;;5.47;4.40;;;;;;;20.94;58.56;101290.19;4979589;28;20057;-72
2022/05/06 00:17:39;;;;;;;6.00;4.38;;;;;;;20.95;58.53;101289.22;4997729;28;20069;-72
2022/05/06 00:20:08;;;;;;;4.53;4.10;;;;;;;20.94;58.54;101295.56;4996662;28;20050;-72
2022/05/06 00:22:35;;;;;;;5.88;4.53;;;;;;;20.94;58.37;101287.50;4996143;28;20479;-72
2022/05/06 00:25:02;;;;;;;5.50;3.92;;;;;;;20.93;58.45;101294.72;4997172;28;20073;-72
2022/05/06 00:27:31;;;;;;;4.63;4.22;;;;;;;20.93;58.43;101283.09;4995111;28;20092;-72
2022/05/06 00:29:59;;;;;;;4.63;4.13;;;;;;;20.93;58.48;101289.34;4995169;28;20057;-72
2022/05/06 00:32:28;;;;;;;4.20;3.75;;;;;;;20.93;58.33;101286.66;4996981;28;20046;-72
2022/05/06 00:34:55;;;;;;;4.70;3.83;;;;;;;20.92;58.29;101290.34;4995194;28;20046;-72
2022/05/06 00:37:23;;;;;;;4.63;3.90;;;;;;;20.93;58.40;101283.97;4996091;28;20043;-72
2022/05/06 00:39:50;;;;;;;4.90;3.80;;;;;;;20.93;58.38;101281.25;4996346;28;20061;-72
2022/05/06 00:42:18;;;;;;;4.45;3.83;;;;;;;20.93;58.36;101280.41;4995557;28;20383;-72
2022/05/06 00:44:45;;;;;;;6.45;4.43;;;;;;;20.92;58.33;101278.72;4996132;28;20391;-72
2022/05/06 00:47:16;;;;;;;4.60;4.00;;;;;;;20.93;58.38;101280.41;4996120;28;20043;-72
2022/05/06 00:49:43;;;;;;;7.80;4.47;;;;;;;20.92;58.24;101276.03;4996793;28;20050;-72
2022/05/06 00:52:11;;;;;;;4.40;4.00;;;;;;;20.92;58.28;101273.34;4995919;28;20046;-72
2022/05/06 00:54:40;;;;;;;4.32;3.90;;;;;;;20.91;58.27;101277.03;4996620;28;20385;-72
2022/05/06 00:57:08;;;;;;;6.10;4.38;;;;;;;20.91;58.19;101277.88;4995921;28;20506;-72
2022/05/06 01:00:17;;;;;;;5.47;4.15;;;;;;;20.91;58.24;101271.63;4994782;28;20510;-72
2022/05/06 01:02:23;;;;;;;4.97;4.30;;;;;;;20.91;58.32;101279.72;4996365;28;20046;-72
2022/05/06 01:04:56;;;;;;;5.32;4.05;;;;;;;20.91;58.29;101277.03;4994492;28;20042;-72
2022/05/06 01:07:24;;;;;;;4.22;3.83;;;;;;;20.91;58.22;101280.56;4994711;28;20050;-72
2022/05/06 01:09:51;;;;;;;5.28;4.22;;;;;;;20.91;58.30;101277.03;4994584;28;20058;-72
2022/05/06 01:12:19;;;;;;;4.45;3.90;;;;;;;20.91;58.16;101271.63;4994445;28;20057;-72
2022/05/06 01:14:47;;;;;;;4.78;3.90;;;;;;;20.92;58.17;101276.03;4994447;28;20047;-72
2022/05/06 01:17:22;;;;;;;4.15;3.75;;;;;;;20.91;58.15;101275.19;4994478;28;20465;-72
2022/05/06 01:19:50;;;;;;;5.78;3.60;;;;;;;20.91;58.27;101282.41;4978266;28;20053;-72
2022/05/06 01:22:17;;;;;;;4.15;3.70;;;;;;;20.90;58.18;101281.56;4994190;28;20046;-71
2022/05/06 01:24:45;;;;;;;5.93;4.43;;;;;;;20.90;58.18;101276.16;4995226;28;20062;-71
2022/05/06 01:27:23;;;;;;;4.68;4.22;;;;;;;20.89;58.11;101278.97;4994188;28;20054;-71
2022/05/06 01:29:51;;;;;;;4.70;3.90;;;;;;;20.89;58.36;101277.13;4994378;28;20061;-71
2022/05/06 01:32:22;;;;;;;4.53;3.80;;;;;;;20.90;58.10;101275.28;4993879;28;20058;-71
2022/05/06 01:34:51;;;;;;;4.75;3.70;;;;;;;20.90;58.02;101277.97;4995347;28;20046;-71
2022/05/06 01:37:21;;;;;;;5.35;3.90;;;;;;;20.89;58.22;101274.44;4994943;28;20046;-71
2022/05/06 01:39:53;;;;;;;4.30;3.83;;;;;;;20.90;58.14;101277.97;4994915;28;20054;-71
2022/05/06 01:42:24;;;;;;;5.60;4.10;;;;;;;20.90;58.16;101275.28;4994079;28;20057;-71
2022/05/06 01:44:59;;;;;;;5.05;4.22;;;;;;;20.89;58.08;101271.75;4994267;28;20062;-71
2022/05/06 01:47:30;;;;;;;4.50;3.83;;;;;;;20.90;58.21;101275.28;4994165;28;20065;-71
2022/05/06 01:50:04;;;;;;;4.75;3.92;;;;;;;20.89;58.14;101270.91;4978272;28;20054;-71
2022/05/06 01:52:35;;;;;;;4.95;4.07;;;;;;;20.90;58.15;101275.28;4994633;28;20054;-71
2022/05/06 01:55:04;;;;;;;4.72;4.10;;;;;;;20.90;58.00;101264.53;4994740;28;20051;-71
2022/05/06 01:57:38;;;;;;;4.38;3.97;;;;;;;20.90;58.07;101261.84;4995003;28;20058;-71
2022/05/06 02:00:06;;;;;;;5.70;4.43;;;;;;;20.90;58.10;101261.84;4993842;28;20125;-71
2022/05/06 02:02:42;;;;;;;4.32;3.88;;;;;;;20.90;58.18;101260.03;5002089;28;20058;-71
2022/05/06 02:05:19;;;;;;;4.35;3.78;;;;;;;20.90;58.18;101256.44;4994198;28;20077;-70
2022/05/06 02:07:55;;;;;;;4.55;4.00;;;;;;;20.88;58.12;101253.91;4994119;28;20122;-71
2022/05/06 02:10:27;;;;;;;4.53;4.07;;;;;;;20.88;58.06;101251.22;4993270;28;20175;-71
2022/05/06 02:13:04;;;;;;;4.47;4.05;;;;;;;20.88;58.09;101244.97;4993436;28;20057;-71
2022/05/06 02:15:38;;;;;;;6.00;3.67;;;;;;;20.88;58.13;101245.81;5000957;28;20524;-70
2022/05/06 02:18:28;;;;;;;4.57;3.83;;;;;;;20.88;58.10;101248.53;4994166;28;20057;-70
2022/05/06 02:21:14;;;;;;;4.82;4.30;;;;;;;20.88;58.09;101239.59;5001566;28;20414;-71
2022/05/06 02:23:53;;;;;;;3.80;3.40;;;;;;;20.89;58.08;101233.22;4993018;28;20494;-71
2022/05/06 02:26:29;;;;;;;3.80;3.40;;;;;;;20.89;57.77;101234.06;5000867;28;20061;-71
2022/05/06 02:29:01;;;;;;;5.60;3.90;;;;;;;20.89;58.10;101228.69;4993356;28;20061;-71
2022/05/06 02:34:18;;;;;;;4.00;3.45;;;;;;;20.90;57.98;101224.16;4993348;28;20054;-71
2022/05/06 02:36:49;;;;;;;5.28;4.30;;;;;;;20.89;58.09;101215.22;4993440;28;20050;-71
2022/05/06 02:39:25;;;;;;;4.00;3.60;;;;;;;20.89;58.09;101219.75;4993870;28;20054;-70
2022/05/06 02:42:03;;;;;;;4.38;3.95;;;;;;;20.88;58.18;101212.69;4977593;28;20054;-71
2022/05/06 02:44:31;;;;;;;4.47;3.85;;;;;;;20.88;58.26;101212.69;4992677;28;20054;-71
2022/05/06 02:46:59;;;;;;;4.80;3.50;;;;;;;20.89;58.21;101207.16;4992554;28;20073;-71
2022/05/06 02:49:26;;;;;;;4.45;3.35;;;;;;;20.89;58.26;101206.31;4992596;28;20066;-71
2022/05/06 02:51:54;;;;;;;4.53;3.58;;;;;;;20.89;58.22;101207.16;4993027;28;20065;-71
2022/05/06 02:54:22;;;;;;;4.30;3.90;;;;;;;20.88;58.18;101205.47;4993096;28;20054;-71
2022/05/06 02:56:56;;;;;;;5.00;3.35;;;;;;;20.89;58.17;101196.41;4993029;28;20054;-71
2022/05/06 02:59:24;;;;;;;4.07;3.22;;;;;;;20.89;58.26;101195.53;4992806;28;20122;-71
2022/05/06 03:01:53;;;;;;;3.40;3.10;;;;;;;20.88;58.17;101200.06;4992516;28;20059;-71
2022/05/06 03:04:20;;;;;;;4.85;3.30;;;;;;;20.89;58.22;101198.22;4992666;28;20073;-71
2022/05/06 03:06:48;;;;;;;4.38;3.42;;;;;;;20.87;58.35;101190.31;4994175;28;20054;-71
2022/05/06 03:09:29;;;;;;;4.38;3.38;;;;;;;20.87;58.22;101190.31;4992584;28;20053;-71
2022/05/06 03:11:56;;;;;;;4.07;3.30;;;;;;;20.88;58.26;101188.47;4992538;28;20061;-71
2022/05/06 03:14:26;;;;;;;4.35;3.53;;;;;;;20.87;58.37;101195.69;4992586;28;20499;-71
2022/05/06 03:17:10;;;;;;;5.25;3.08;;;;;;;20.86;58.30;101185.88;4992600;28;20046;-71
2022/05/06 03:19:38;;;;;;;4.60;3.47;;;;;;;20.87;58.23;101189.47;4992095;28;20055;-71
2022/05/06 03:22:07;;;;;;;4.22;3.03;;;;;;;20.86;58.23;101188.56;4992347;28;20054;-71
2022/05/06 03:24:35;;;;;;;3.22;2.88;;;;;;;20.86;58.29;101185.03;4992384;28;20061;-71
2022/05/06 03:27:02;;;;;;;4.07;3.20;;;;;;;20.87;58.23;101189.47;4993379;28;20042;-71
2022/05/06 03:29:30;;;;;;;4.40;3.50;;;;;;;20.87;58.22;101192.16;4992267;28;20046;-71
2022/05/06 03:31:59;;;;;;;5.03;3.33;;;;;;;20.86;58.27;101187.72;4992555;28;20053;-71
2022/05/06 03:34:30;;;;;;;3.47;2.97;;;;;;;20.86;58.31;101183.19;4977232;28;20046;-71
2022/05/06 03:36:57;;;;;;;4.20;3.28;;;;;;;20.87;58.32;101186.78;4994150;28;20042;-71
2022/05/06 03:39:25;;;;;;;4.47;3.03;;;;;;;20.86;58.29;101183.19;4976115;28;20058;-71
2022/05/06 03:42:03;;;;;;;5.75;3.65;;;;;;;20.86;58.27;101182.34;4992900;28;20062;-71
2022/05/06 03:44:31;;;;;;;4.50;3.33;;;;;;;20.86;58.20;101183.19;4992195;28;20046;-71
2022/05/06 03:46:58;;;;;;;3.50;3.20;;;;;;;20.86;58.25;101177.81;4993622;28;20051;-71
2022/05/06 03:49:31;;;;;;;3.47;3.00;;;;;;;20.87;58.35;101181.38;4992267;28;20069;-71
2022/05/06 03:52:01;;;;;;;3.60;3.17;;;;;;;20.87;58.24;101181.38;4992436;28;20409;-71
2022/05/06 03:54:29;;;;;;;3.65;3.15;;;;;;;20.87;58.14;101178.69;4994211;28;20066;-71
2022/05/06 03:56:56;;;;;;;4.88;3.90;;;;;;;20.86;58.13;101174.28;4995493;28;20046;-71
2022/05/06 03:59:24;;;;;;;3.95;3.28;;;;;;;20.87;58.11;101173.31;4996036;28;20057;-71
2022/05/06 04:02:04;;;;;;;3.72;2.90;;;;;;;20.86;58.26;101180.50;4995964;28;20057;-71
2022/05/06 04:04:33;;;;;;;3.60;3.13;;;;;;;20.85;58.04;101181.50;4995633;28;20066;-71
2022/05/06 04:07:05;;;;;;;4.43;2.78;;;;;;;20.86;58.21;101185.03;4995678;28;20525;-71
2022/05/06 04:09:43;;;;;;;3.72;3.30;;;;;;;20.87;58.22;101186.78;4995697;28;20050;-70
2022/05/06 04:12:11;;;;;;;4.45;3.15;;;;;;;20.86;58.32;101182.34;4995696;28;20054;-71
2022/05/06 04:14:44;;;;;;;4.93;3.35;;;;;;;20.85;58.14;101186.88;4995487;28;20042;-71
2022/05/06 04:17:13;;;;;;;3.50;2.90;;;;;;;20.85;58.14;101189.56;4980030;28;20046;-71
2022/05/06 04:23:28;;;;;;;3.65;2.90;;;;;;;20.85;58.17;101194.09;4996496;28;20061;-71
2022/05/06 04:25:18;;;;;;;3.50;2.97;;;;;;;20.85;58.09;101202.19;4995629;28;20069;-71
2022/05/06 04:27:48;;;;;;;3.95;3.17;;;;;;;20.84;58.03;101201.34;4995290;28;20050;-71
2022/05/06 04:30:16;;;;;;;3.40;2.90;;;;;;;20.84;58.16;101211.25;4996458;28;20050;-71
2022/05/06 04:32:55;;;;;;;4.38;3.35;;;;;;;20.84;58.13;101212.09;4981330;28;20050;-71
2022/05/06 04:35:22;;;;;;;3.47;2.97;;;;;;;20.83;58.14;101210.41;4996978;28;20355;-71
2022/05/06 04:37:50;;;;;;;4.53;2.95;;;;;;;20.84;58.18;101212.09;4995908;28;20478;-71
2022/05/06 04:40:18;;;;;;;3.58;2.40;;;;;;;20.84;58.16;101211.25;4995105;28;20057;-71
2022/05/06 04:42:45;;;;;;;3.40;2.90;;;;;;;20.84;58.22;101209.41;4995219;28;20050;-70
2022/05/06 04:45:16;;;;;;;4.18;3.15;;;;;;;20.83;58.22;101207.72;4994865;28;20142;-71
2022/05/06 04:47:56;;;;;;;5.05;3.00;;;;;;;20.83;57.97;101205.00;4994877;28;20050;-71
2022/05/06 04:50:24;;;;;;;7.25;2.88;;;;;;;20.83;58.21;101213.09;4994748;28;20057;-71
2022/05/06 04:52:52;;;;;;;2.90;2.38;;;;;;;20.83;58.11;101207.72;4995039;28;20410;-71
2022/05/06 04:55:20;;;;;;;4.55;2.72;;;;;;;20.84;58.12;101211.25;4994719;28;20414;-71
2022/05/06 04:57:48;;;;;;;4.40;2.90;;;;;;;20.82;58.14;101219.44;4994731;28;20057;-71
2022/05/06 05:00:16;;;;;;;4.30;3.10;;;;;;;20.84;58.22;101222.00;4996114;28;20348;-71
2022/05/06 05:02:47;;;;;;;3.75;2.55;;;;;;;20.83;58.12;101220.31;4995205;28;20050;-70
2022/05/06 05:05:15;;;;;;;4.95;2.80;;;;;;;20.83;58.04;101215.78;4993959;28;20051;-70
2022/05/06 05:07:43;;;;;;;4.30;3.00;;;;;;;20.82;58.28;101216.75;4995083;28;20043;-71
2022/05/06 05:10:14;;;;;;;2.88;2.50;;;;;;;20.82;58.13;101216.75;4994658;28;20054;-71
2022/05/06 05:12:42;;;;;;;6.82;2.92;;;;;;;20.83;58.22;101228.38;4994788;28;20054;-71
2022/05/06 05:15:10;;;;;;;4.68;2.60;;;;;;;20.83;58.28;101217.63;4994284;28;20054;-71
2022/05/06 05:17:39;;;;;;;3.83;2.60;;;;;;;20.82;58.28;101222.13;4994308;28;20411;-71
2022/05/06 05:20:07;;;;;;;3.60;2.92;;;;;;;20.82;58.18;101223.97;4995988;28;20383;-71
2022/05/06 05:22:38;;;;;;;4.05;2.40;;;;;;;20.82;58.28;101223.97;4978087;28;20050;-71
2022/05/06 05:25:09;;;;;;;3.42;2.33;;;;;;;20.83;58.07;101225.69;4994156;28;20053;-71
2022/05/06 05:27:38;;;;;;;4.05;2.85;;;;;;;20.82;58.33;101223.97;4994618;28;20054;-71
2022/05/06 05:30:10;;;;;;;2.97;2.35;;;;;;;20.82;58.21;101223.97;4993911;28;20059;-71
2022/05/06 05:32:39;;;;;;;3.33;2.80;;;;;;;20.82;58.27;101229.34;4994011;28;20507;-71
2022/05/06 05:35:11;;;;;;;3.05;2.75;;;;;;;20.81;58.13;101222.25;4994288;28;20054;-71
2022/05/06 05:37:44;;;;;;;2.88;2.35;;;;;;;20.81;58.17;101216.88;4993883;28;20050;-71
2022/05/06 05:40:12;;;;;;;3.10;2.50;;;;;;;20.81;58.30;101223.13;4993890;28;20057;-71
2022/05/06 05:42:41;;;;;;;3.47;3.10;;;;;;;20.81;58.33;101224.97;4993673;28;20050;-71
2022/05/06 05:50:47;;;;;;;3.65;3.03;;;;;;;20.80;58.23;101220.56;4993650;28;20050;-71
2022/05/06 05:53:21;;;;;;;4.88;3.00;;;;;;;20.80;58.19;101218.72;4993659;28;20065;-71
2022/05/06 05:55:50;;;;;;;2.95;2.63;;;;;;;20.80;58.33;101225.94;4993716;28;20046;-71
2022/05/06 05:58:23;;;;;;;5.22;2.95;;;;;;;20.80;58.13;101231.34;4993577;28;20062;-72
2022/05/06 06:00:53;;;;;;;5.32;2.70;;;;;;;20.80;58.19;101228.63;4993569;28;20486;-71
2022/05/06 06:03:26;;;;;;;3.72;2.85;;;;;;;20.79;58.16;101226.94;4993990;28;20471;-72
2022/05/06 06:05:53;;;;;;;3.80;2.67;;;;;;;20.80;58.12;101234.03;4995064;28;20042;-73
2022/05/06 06:08:23;;;;;;;4.30;2.50;;;;;;;20.79;58.13;101235.88;4993543;28;20374;-71
2022/05/06 06:10:55;;;;;;;4.03;2.72;;;;;;;20.80;58.13;101245.63;4993425;28;20498;-71
2022/05/06 06:13:22;;;;;;;4.72;2.80;;;;;;;20.80;58.12;101244.78;4993641;28;20057;-74
2022/05/06 06:15:50;;;;;;;4.18;2.78;;;;;;;20.79;58.19;101237.69;4994153;28;20477;-72
2022/05/06 06:18:26;;;;;;;3.92;2.42;;;;;;;20.79;57.96;101241.25;4993429;28;20406;-71
2022/05/06 06:20:57;;;;;;;3.83;3.08;;;;;;;20.80;58.07;101244.78;4993464;28;20406;-71
2022/05/06 06:23:25;;;;;;;5.75;2.85;;;;;;;20.78;58.32;101247.59;4976835;28;20067;-71
2022/05/06 06:25:58;;;;;;;5.85;2.85;;;;;;;20.78;58.21;101252.97;4993409;28;20076;-72
2022/05/06 06:28:26;;;;;;;3.83;2.75;;;;;;;20.78;58.32;101257.50;4993262;28;20046;-72
2022/05/06 06:30:54;;;;;;;5.95;3.33;;;;;;;20.78;58.07;101249.44;4993230;28;20054;-71
2022/05/06 06:33:22;;;;;;;4.13;2.63;;;;;;;20.78;58.09;101249.44;4993074;28;20387;-71
2022/05/06 06:35:49;;;;;;;4.93;3.00;;;;;;;20.78;57.93;101244.03;4992590;28;20054;-71
2022/05/06 06:38:18;;;;;;;4.25;2.70;;;;;;;20.78;58.09;101255.66;4992747;28;20054;-71
2022/05/06 06:40:46;;;;;;;3.22;2.38;;;;;;;20.76;57.94;101238.81;4992782;28;20054;-72
2022/05/06 06:43:13;;;;;;;5.03;2.92;;;;;;;20.78;58.02;101246.75;4994369;28;20398;-72
2022/05/06 06:45:59;;;;;;;3.97;2.78;;;;;;;20.76;58.05;101240.66;5001162;28;20066;-71
2022/05/06 06:48:59;;;;;;;3.33;2.40;;;;;;;20.76;57.94;101249.56;4972791;28;20079;-71
2022/05/06 06:52:03;;;;;;;4.63;2.92;;;;;;;20.76;57.93;101251.41;4915979;29;20381;-71
2022/05/06 06:54:31;;;;;;;3.58;2.88;;;;;;;20.76;57.93;101254.09;4915038;29;20091;-72
2022/05/06 06:56:59;;;;;;;3.10;2.75;;;;;;;20.76;57.85;101251.41;4899460;29;20059;-71
2022/05/06 06:59:26;;;;;;;3.03;2.35;;;;;;;20.74;57.94;101244.34;4915609;29;20052;-71
2022/05/06 07:01:53;;;;;;;3.42;2.30;;;;;;;20.74;57.88;101248.84;4916573;29;20060;-71
2022/05/06 07:04:21;;;;;;;2.80;2.40;;;;;;;20.76;57.80;101264.88;4899157;29;20056;-71
2022/05/06 07:12:20;;;;;;;3.10;2.75;;;;;;;20.74;57.77;101265.84;4915198;29;20068;-72
2022/05/06 07:14:48;;;;;;;4.43;2.97;;;;;;;20.73;57.77;101264.13;4899566;29;20498;-72
2022/05/06 07:17:15;;;;;;;4.70;2.40;;;;;;;20.73;57.82;101263.28;4915572;29;20520;-72
2022/05/06 07:19:48;;;;;;;3.72;2.85;;;;;;;20.73;57.79;101258.75;4915448;29;20056;-72
2022/05/06 07:22:15;;;;;;;4.28;2.70;;;;;;;20.73;57.99;101268.66;4914977;29;20048;-72
2022/05/06 07:24:54;;;;;;;3.05;2.50;;;;;;;20.72;57.78;101251.66;4914836;29;20060;-72
2022/05/06 07:27:22;;;;;;;6.50;2.67;;;;;;;20.72;57.74;101273.19;5007365;28;20058;-71
2022/05/06 07:29:49;;;;;;;3.15;2.50;;;;;;;20.73;57.43;101268.66;4996398;28;20044;-71
2022/05/06 07:32:18;;;;;;;3.38;2.80;;;;;;;20.72;57.63;101267.81;4997560;28;20050;-71
2022/05/06 07:34:45;;;;;;;4.93;2.90;;;;;;;20.73;57.76;101269.50;4997201;28;20051;-71
2022/05/06 07:37:12;;;;;;;2.70;2.20;;;;;;;20.72;57.71;101265.13;4997357;28;20050;-72
2022/05/06 07:39:40;;;;;;;3.30;2.40;;;;;;;20.73;57.72;101263.28;4997173;28;20046;-71
2022/05/06 07:42:08;;;;;;;2.95;2.30;;;;;;;20.71;57.63;101263.41;4997648;28;20061;-71
2022/05/06 07:44:35;;;;;;;3.47;2.65;;;;;;;20.72;57.61;101262.44;4997223;28;20046;-71
2022/05/06 07:47:03;;;;;;;3.97;2.78;;;;;;;20.71;57.54;101263.41;4997580;28;20054;-71
2022/05/06 07:49:31;;;;;;;3.95;2.38;;;;;;;20.70;57.66;101261.72;4997160;28;20049;-70
2022/05/06 07:51:58;;;;;;;3.38;2.60;;;;;;;20.71;57.67;101271.50;4995876;28;20429;-71
2022/05/06 07:54:26;;;;;;;3.20;2.85;;;;;;;20.71;57.56;101274.19;4995746;28;20057;-72
2022/05/06 07:56:53;;;;;;;2.95;2.47;;;;;;;20.71;57.42;101281.41;4997372;28;20042;-72
2022/05/06 07:59:20;;;;;;;4.40;3.00;;;;;;;20.70;57.51;101274.28;4996681;28;20090;-71
2022/05/06 08:04:34;;;;;;;2.80;2.47;;;;;;;20.70;57.49;101280.56;4997489;28;20053;-71
2022/05/06 08:07:03;;;;;;;3.45;2.60;;;;;;;20.70;57.52;101280.56;4996723;28;20054;-71
2022/05/06 08:09:32;;;;;;;4.63;3.00;;;;;;;20.70;57.63;101280.56;4997151;28;20494;-71
2022/05/06 08:12:01;;;;;;;2.88;2.20;;;;;;;20.69;57.59;101284.22;4995861;28;20047;-71
2022/05/06 08:14:29;;;;;;;3.65;2.53;;;;;;;20.70;57.64;101288.63;4995567;28;20054;-71
2022/05/06 08:16:56;;;;;;;5.20;2.40;;;;;;;20.70;57.85;101277.88;4994439;28;20055;-70
2022/05/06 08:19:24;;;;;;;4.80;2.72;;;;;;;20.68;57.78;101277.13;4994656;28;20062;-71
2022/05/06 08:21:52;;;;;;;5.47;2.78;;;;;;;20.66;57.93;101279.09;4996363;28;20054;-70
2022/05/06 08:24:21;;;;;;;4.20;2.90;;;;;;;20.63;57.81;101281.19;4995120;28;20093;-70
2022/05/06 08:26:49;;;;;;;3.55;2.83;;;;;;;20.63;57.90;101287.44;4995663;28;20169;-70
2022/05/06 08:29:16;;;;;;;3.63;2.90;;;;;;;20.63;57.96;101284.75;4996389;28;20046;-70
2022/05/06 08:31:44;;;;;;;4.38;2.80;;;;;;;20.62;57.93;101287.53;4995421;28;20054;-71
2022/05/06 08:34:12;;;;;;;5.25;3.30;;;;;;;20.60;58.13;101286.84;4996319;28;20509;-70
2022/05/06 08:36:43;;;;;;;3.38;2.75;;;;;;;20.57;57.79;101293.31;4995203;28;20397;-70
2022/05/06 08:39:12;;;;;;;3.75;2.97;;;;;;;20.57;58.13;101301.38;4996381;28;20426;-71
2022/05/06 08:41:41;;;;;;;3.33;3.00;;;;;;;20.55;58.22;101297.97;4994989;28;20390;-70
2022/05/06 08:52:40;;;;;;;4.63;3.47;;;;;;;20.50;58.27;101310.97;5016123;28;20062;-71
2022/05/06 08:55:08;;;;;;;3.67;2.63;;;;;;;20.49;58.29;101307.41;5033582;28;20176;-71
2022/05/06 08:57:36;;;;;;;5.65;3.63;;;;;;;20.46;58.49;101320.25;5033328;28;20069;-71
2022/05/06 09:00:05;;;;;;;3.55;3.08;;;;;;;20.35;58.58;101314.88;5033237;28;20053;-71
2022/05/06 09:02:32;;;;;;;4.97;3.53;;;;;;;20.38;58.48;101314.66;5033011;28;20060;-71
2022/05/06 09:04:59;;;;;;;4.88;3.45;;;;;;;20.39;58.54;101319.03;5032873;28;20097;-71
2022/05/06 09:07:27;;;;;;;5.65;3.47;;;;;;;20.36;58.74;101314.75;5033071;28;20057;-71
2022/05/06 09:10:12;;;;;;;4.22;3.30;;;;;;;20.35;58.84;101306.81;5032618;28;20046;-71
2022/05/06 09:12:42;;;;;;;4.10;2.80;;;;;;;20.36;58.89;101313.91;5032889;28;20060;-71
2022/05/06 09:17:58;;;;;;;6.78;3.75;;;;;;;20.39;58.80;101319.88;5032382;28;20064;-71
2022/05/06 09:20:26;;;;;;;4.80;2.95;;;;;;;20.39;58.61;101319.03;5032836;28;20042;-71
2022/05/06 09:22:55;;;;;;;5.80;3.60;;;;;;;20.40;58.46;101321.59;5032793;28;20057;-71
2022/05/06 09:26:03;;;;;;;5.72;3.65;;;;;;;20.40;58.62;101323.41;4994248;28;20054;-71
2022/05/06 09:28:35;;;;;;;6.35;4.22;;;;;;;20.35;59.01;101322.97;4994509;28;20069;-71
2022/05/06 09:31:08;;;;;;;9.63;3.58;;;;;;;20.31;59.24;101332.25;4995339;28;20077;-70
2022/05/06 09:33:40;;;;;;;5.28;3.65;;;;;;;20.32;59.55;101323.19;4995173;28;20057;-71
2022/05/06 09:36:25;;;;;;;6.60;3.83;;;;;;;20.21;59.79;101330.31;4995477;28;20042;-71
2022/05/06 09:39:14;;;;;;;4.22;3.58;;;;;;;20.19;59.88;101334.13;4995301;28;20050;-70
2022/05/06 09:41:41;;;;;;;6.72;4.07;;;;;;;20.16;59.92;101334.34;4995164;28;20053;-71
2022/05/06 09:44:10;;;;;;;6.80;3.83;;;;;;;20.15;59.80;101330.81;4995091;28;20057;-71
2022/05/06 09:46:37;;;;;;;4.72;3.47;;;;;;;20.18;59.92;101335.94;4994660;28;20486;-70
2022/05/06 09:49:06;;;;;;;6.10;3.67;;;;;;;20.18;59.72;101335.09;4994974;28;20042;-71
2022/05/06 09:51:53;;;;;;;5.85;3.10;;;;;;;20.21;59.59;101326.75;4994162;28;20054;-70
2022/05/06 09:54:32;;;;;;;3.83;3.40;;;;;;;20.20;59.85;101328.59;4994644;28;20477;-70
2022/05/06 09:57:03;;;;;;;5.15;3.42;;;;;;;20.22;59.79;101328.50;4993745;28;20071;-70
2022/05/06 09:59:31;;;;;;;6.03;3.97;;;;;;;20.23;59.58;101343.63;4994633;28;20042;-71
2022/05/06 10:01:58;;;;;;;4.88;3.53;;;;;;;20.13;59.93;101346.19;4994233;28;20069;-71
2022/05/06 10:04:33;;;;;;;5.43;3.47;;;;;;;20.17;59.63;101347.66;4995017;28;20050;-71
2022/05/06 10:07:01;;;;;;;5.65;4.28;;;;;;;20.17;59.79;101338.75;4994371;28;20049;-71
2022/05/06 10:09:34;;;;;;;6.45;4.30;;;;;;;20.12;60.01;101341.81;4994427;28;20038;-71
2022/05/06 10:12:04;;;;;;;4.13;3.40;;;;;;;20.15;59.81;101332.66;4994888;28;20046;-71
2022/05/06 10:14:33;;;;;;;5.00;3.40;;;;;;;20.17;59.56;101336.06;4995023;28;20053;-71
2022/05/06 10:17:01;;;;;;;6.30;3.70;;;;;;;20.18;59.53;101337.78;4994235;28;20054;-71
2022/05/06 10:19:38;;;;;;;4.57;3.38;;;;;;;20.19;59.58;101324.22;4994796;28;20038;-71
2022/05/06 10:22:06;;;;;;;5.25;3.63;;;;;;;20.07;60.02;101335.97;4993094;28;20130;-71
2022/05/06 10:24:43;;;;;;;6.30;3.75;;;;;;;20.10;59.83;101334.88;4994180;28;20054;-71
2022/05/06 10:33:19;;;;;;;4.65;3.58;;;;;;;20.11;59.84;101326.66;4993909;28;20445;-71
2022/05/06 10:35:48;;;;;;;3.83;3.25;;;;;;;20.13;59.91;101330.06;4993800;28;20046;-70
2022/05/06 10:38:24;;;;;;;3.60;3.08;;;;;;;20.15;59.86;101329.97;4993888;28;20073;-71
2022/05/06 10:41:02;;;;;;;4.75;3.50;;;;;;;20.15;59.91;101324.59;4993982;28;20042;-70
2022/05/06 10:43:41;;;;;;;5.65;3.55;;;;;;;20.15;59.87;101328.13;4993849;28;20046;-70
2022/05/06 10:46:32;;;;;;;4.63;3.38;;;;;;;20.15;60.01;101328.13;4993784;28;20405;-70
2022/05/06 10:49:37;;;;;;;5.05;3.95;;;;;;;20.15;60.17;101317.38;4994013;28;20057;-71
2022/05/06 10:52:16;;;;;;;5.53;3.38;;;;;;;20.16;60.17;101324.44;4993651;28;20054;-70
2022/05/06 10:54:48;;;;;;;7.15;4.07;;;;;;;20.18;60.21;101316.28;4993954;28;20057;-71
2022/05/06 10:57:18;;;;;;;6.28;3.92;;;;;;;20.18;60.08;101321.66;4994130;28;20047;-71
2022/05/06 10:59:53;;;;;;;4.85;3.90;;;;;;;20.19;60.13;101326.06;4993600;28;20398;-71
2022/05/06 11:02:26;;;;;;;4.65;3.65;;;;;;;20.19;60.21;101323.38;4994030;28;20054;-71
2022/05/06 11:05:04;;;;;;;5.68;4.05;;;;;;;20.19;60.19;101332.28;4993366;28;20054;-71
2022/05/06 11:07:34;;;;;;;5.97;4.43;;;;;;;20.21;60.27;101324.91;4993996;28;20061;-71
2022/05/06 11:10:11;;;;;;;5.60;3.38;;;;;;;20.22;60.21;101326.66;4993643;28;20054;-70
2022/05/06 11:12:51;;;;;;;8.05;3.67;;;;;;;20.23;60.14;101322.13;4992935;28;20050;-70
2022/05/06 11:15:24;;;;;;;6.03;4.05;;;;;;;20.23;60.30;101319.44;4992666;28;20065;-70
2022/05/06 11:17:55;;;;;;;6.10;3.85;;;;;;;20.21;60.14;101324.91;4993738;28;20047;-70
2022/05/06 11:20:28;;;;;;;6.32;3.90;;;;;;;20.22;60.46;101325.81;4993192;28;20043;-70
2022/05/06 11:22:59;;;;;;;;;;;;;;;20.20;60.41;101325.06;4993826;28;20409;-70
2022/05/06 11:25:47;;;;;;;3.80;3.05;;;;;;;20.22;60.37;101325.81;4993638;28;19929;-70
2022/05/06 11:28:17;;;;;;;5.50;3.90;;;;;;;20.20;60.32;101333.97;4993140;28;20057;-70
2022/05/06 11:30:47;;;;;;;10.20;3.92;;;;;;;20.21;60.28;101330.31;4993279;28;20042;-71
2022/05/06 11:33:24;;;;;;;6.20;3.92;;;;;;;20.21;60.53;101338.38;4993162;28;20043;-70
2022/05/06 11:36:01;;;;;;;4.72;3.65;;;;;;;20.20;60.82;101336.66;4993467;28;20069;-70
2022/05/06 11:38:36;;;;;;;5.05;3.63;;;;;;;20.20;60.72;101327.75;4993521;28;20050;-70
2022/05/06 11:41:12;;;;;;;5.15;3.67;;;;;;;20.19;60.90;101331.44;4993273;28;20046;-70
2022/05/06 11:43:41;;;;;;;7.90;3.83;;;;;;;20.18;60.93;101330.56;4993453;28;20050;-71
2022/05/06 11:49:08;;;;;;;5.18;3.95;;;;;;;20.17;60.97;101336.91;4992977;28;20053;-70
2022/05/06 11:51:42;;;;;;;6.32;4.32;;;;;;;20.17;61.24;101331.53;4993050;28;20054;-71
2022/05/06 11:54:14;;;;;;;5.60;3.90;;;;;;;20.15;61.13;101330.81;4992053;28;20062;-71
2022/05/06 11:56:42;;;;;;;7.88;4.07;;;;;;;20.15;61.22;101328.13;4993361;28;20042;-70
2022/05/06 11:59:10;;;;;;;4.38;3.65;;;;;;;20.16;61.09;101334.34;4992882;28;20069;-70
2022/05/06 12:01:38;;;;;;;7.72;3.72;;;;;;;20.14;61.14;101325.56;4993890;28;20049;-72
2022/05/06 12:04:08;;;;;;;5.40;3.83;;;;;;;20.14;60.89;101328.28;4993237;28;20051;-71
2022/05/06 12:06:47;;;;;;;5.80;3.58;;;;;;;20.15;61.00;101324.59;4993532;28;20057;-71
2022/05/06 12:09:17;;;;;;;3.85;3.17;;;;;;;20.14;60.98;101331.81;4993031;28;20050;-71
2022/05/06 12:11:45;;;;;;;5.63;3.63;;;;;;;20.14;60.92;101325.56;4993156;28;20838;-71
2022/05/06 12:14:17;;;;;;;5.88;3.38;;;;;;;20.14;60.76;101322.88;4993537;28;20047;-70
2022/05/06 12:16:56;;;;;;;5.18;3.78;;;;;;;20.14;60.69;101329.13;4996982;28;20057;-71
2022/05/06 12:19:37;;;;;;;7.78;3.83;;;;;;;20.14;60.77;101339.88;4997062;28;20053;-71
2022/05/06 12:22:09;;;;;;;4.97;3.03;;;;;;;20.16;60.48;101334.34;4975638;28;20062;-71